createdAt,value
2022-08-26T00:00:11.274Z,1014.37
2022-08-26T00:01:11.669Z,1014.37
2022-08-26T00:02:12.057Z,1014.37
2022-08-26T00:03:12.363Z,1014.39
2022-08-26T00:04:12.833Z,1014.33
2022-08-26T00:05:13.094Z,1014.37
2022-08-26T00:06:13.495Z,1014.33
2022-08-26T00:07:13.810Z,1014.37
2022-08-26T00:08:14.170Z,1014.32
2022-08-26T00:09:16.147Z,1014.35
2022-08-26T00:10:14.907Z,1014.37
2022-08-26T00:11:15.272Z,1014.34
2022-08-26T00:12:15.639Z,1014.30
2022-08-26T00:13:16.020Z,1014.32
2022-08-26T00:14:16.385Z,1014.28
2022-08-26T00:15:16.734Z,1014.32
2022-08-26T00:16:17.189Z,1014.32
2022-08-26T00:17:17.448Z,1014.35
2022-08-26T00:18:22.305Z,1014.31
2022-08-26T00:19:18.351Z,1014.32
2022-08-26T00:20:18.531Z,1014.32
2022-08-26T00:21:18.919Z,1014.32
2022-08-26T00:22:21.510Z,1014.29
2022-08-26T00:23:19.633Z,1014.31
2022-08-26T00:24:20.009Z,1014.26
2022-08-26T00:25:20.372Z,1014.32
2022-08-26T00:26:20.748Z,1014.31
2022-08-26T00:27:21.088Z,1014.30
2022-08-26T00:28:21.569Z,1014.31
2022-08-26T00:29:21.824Z,1014.34
2022-08-26T00:30:22.942Z,1014.32
2022-08-26T00:31:22.577Z,1014.32
2022-08-26T00:32:22.934Z,1014.32
2022-08-26T00:33:23.273Z,1014.27
2022-08-26T00:34:23.680Z,1014.30
2022-08-26T00:35:23.989Z,1014.30
2022-08-26T00:36:24.420Z,1014.27
2022-08-26T00:37:24.955Z,1014.31
2022-08-26T00:38:25.066Z,1014.27
2022-08-26T00:39:25.435Z,1014.28
2022-08-26T00:40:25.921Z,1014.29
2022-08-26T00:41:26.169Z,1014.29
2022-08-26T00:42:26.533Z,1014.23
2022-08-26T00:43:26.880Z,1014.25
2022-08-26T00:44:27.268Z,1014.24
2022-08-26T00:45:27.657Z,1014.24
2022-08-26T00:46:28.019Z,1014.23
2022-08-26T00:47:28.360Z,1014.25
2022-08-26T00:48:31.771Z,1014.19
2022-08-26T00:49:29.505Z,1014.20
2022-08-26T00:50:29.471Z,1014.17
2022-08-26T00:51:30.132Z,1014.19
2022-08-26T00:52:30.209Z,1014.22
2022-08-26T00:53:30.527Z,1014.20
2022-08-26T00:54:30.886Z,1014.17
2022-08-26T00:55:37.765Z,1014.18
2022-08-26T00:56:31.635Z,1014.21
2022-08-26T00:57:31.991Z,1014.23
2022-08-26T00:58:32.352Z,1014.25
2022-08-26T00:59:33.167Z,1014.19
2022-08-26T01:00:33.065Z,1014.25
2022-08-26T01:01:33.510Z,1014.19
2022-08-26T01:02:33.840Z,1014.20
2022-08-26T01:03:34.146Z,1014.18
2022-08-26T01:04:34.514Z,1014.19
2022-08-26T01:05:34.865Z,1014.20
2022-08-26T01:06:35.225Z,1014.23
2022-08-26T01:07:35.572Z,1014.19
2022-08-26T01:08:35.931Z,1014.19
2022-08-26T01:09:36.281Z,1014.23
2022-08-26T01:10:36.647Z,1014.19
2022-08-26T01:11:37.023Z,1014.18
2022-08-26T01:12:37.373Z,1014.21
2022-08-26T01:13:37.722Z,1014.23
2022-08-26T01:14:38.079Z,1014.17
2022-08-26T01:15:38.458Z,1014.20
2022-08-26T01:16:38.907Z,1014.21
2022-08-26T01:17:39.162Z,1014.17
2022-08-26T01:18:39.537Z,1014.18
2022-08-26T01:19:39.907Z,1014.19
2022-08-26T01:20:40.265Z,1014.18
2022-08-26T01:21:41.299Z,1014.19
2022-08-26T01:22:40.981Z,1014.21
2022-08-26T01:23:41.326Z,1014.19
2022-08-26T01:24:41.680Z,1014.17
2022-08-26T01:25:43.013Z,1014.18
2022-08-26T01:26:42.416Z,1014.16
2022-08-26T01:27:42.748Z,1014.15
2022-08-26T01:28:43.129Z,1014.14
2022-08-26T01:29:43.510Z,1014.23
2022-08-26T01:30:43.833Z,1014.13
2022-08-26T01:31:44.217Z,1014.14
2022-08-26T01:32:44.557Z,1014.20
2022-08-26T01:33:44.919Z,1014.18
2022-08-26T01:34:45.278Z,1014.23
2022-08-26T01:35:45.660Z,1014.23
2022-08-26T01:36:51.063Z,1014.18
2022-08-26T01:37:46.430Z,1014.22
2022-08-26T01:38:46.744Z,1014.20
2022-08-26T01:39:47.161Z,1014.21
2022-08-26T01:40:47.490Z,1014.25
2022-08-26T01:41:47.881Z,1014.20
2022-08-26T01:42:48.239Z,1014.23
2022-08-26T01:43:48.596Z,1014.23
2022-08-26T01:44:48.952Z,1014.19
2022-08-26T01:45:49.391Z,1014.23
2022-08-26T01:46:49.676Z,1014.22
2022-08-26T01:47:50.031Z,1014.24
2022-08-26T01:48:54.345Z,1014.24
2022-08-26T01:49:50.792Z,1014.24
2022-08-26T01:50:51.087Z,1014.23
2022-08-26T01:51:51.441Z,1014.23
2022-08-26T01:52:54.501Z,1014.23
2022-08-26T01:53:52.140Z,1014.23
2022-08-26T01:54:52.520Z,1014.24
2022-08-26T01:55:52.906Z,1014.22
2022-08-26T01:56:53.279Z,1014.20
2022-08-26T01:57:53.632Z,1014.16
2022-08-26T01:58:53.987Z,1014.22
2022-08-26T01:59:54.351Z,1014.22
2022-08-26T02:00:54.758Z,1014.21
2022-08-26T02:01:55.096Z,1014.17
2022-08-26T02:02:55.444Z,1014.21
2022-08-26T02:03:55.801Z,1014.17
2022-08-26T02:04:56.216Z,1014.17
2022-08-26T02:05:56.511Z,1014.14
2022-08-26T02:06:56.892Z,1014.13
2022-08-26T02:07:57.242Z,1014.16
2022-08-26T02:08:57.599Z,1014.12
2022-08-26T02:09:57.956Z,1014.16
2022-08-26T02:10:58.326Z,1014.16
2022-08-26T02:11:58.687Z,1014.19
2022-08-26T02:12:59.064Z,1014.11
2022-08-26T02:13:59.453Z,1014.14
2022-08-26T02:14:59.775Z,1014.14
2022-08-26T02:16:00.173Z,1014.14
2022-08-26T02:17:00.526Z,1014.17
2022-08-26T02:18:00.876Z,1014.15
2022-08-26T02:19:01.237Z,1014.07
2022-08-26T02:20:01.614Z,1014.12
2022-08-26T02:21:01.971Z,1014.07
2022-08-26T02:22:02.356Z,1014.08
2022-08-26T02:23:02.699Z,1014.08
2022-08-26T02:24:03.063Z,1014.05
2022-08-26T02:25:03.418Z,1014.05
2022-08-26T02:26:03.785Z,1014.05
2022-08-26T02:27:04.170Z,1014.03
2022-08-26T02:28:04.514Z,1014.01
2022-08-26T02:29:04.871Z,1014.04
2022-08-26T02:30:05.273Z,1014.10
2022-08-26T02:31:05.620Z,1014.08
2022-08-26T02:32:05.955Z,1014.08
2022-08-26T02:33:06.689Z,1014.05
2022-08-26T02:34:06.684Z,1014.06
2022-08-26T02:35:07.058Z,1014.09
2022-08-26T02:36:07.467Z,1014.08
2022-08-26T02:37:07.871Z,1014.05
2022-08-26T02:38:10.214Z,1014.04
2022-08-26T02:39:08.501Z,1014.05
2022-08-26T02:40:08.868Z,1014.00
2022-08-26T02:41:09.236Z,1013.96
2022-08-26T02:42:09.601Z,1013.99
2022-08-26T02:43:10.083Z,1013.96
2022-08-26T02:44:10.289Z,1013.98
2022-08-26T02:45:10.657Z,1013.96
2022-08-26T02:46:11.031Z,1013.95
2022-08-26T02:47:11.425Z,1013.97
2022-08-26T02:48:11.725Z,1013.93
2022-08-26T02:49:12.094Z,1013.93
2022-08-26T02:50:12.449Z,1013.91
2022-08-26T02:51:12.814Z,1013.93
2022-08-26T02:52:13.177Z,1013.98
2022-08-26T02:53:13.530Z,1013.93
2022-08-26T02:54:13.882Z,1013.88
2022-08-26T02:55:14.244Z,1013.88
2022-08-26T02:56:14.601Z,1013.91
2022-08-26T02:57:15.011Z,1013.95
2022-08-26T02:58:15.306Z,1013.91
2022-08-26T02:59:15.662Z,1013.92
2022-08-26T03:00:16.029Z,1013.88
2022-08-26T03:01:16.498Z,1013.89
2022-08-26T03:02:16.862Z,1013.89
2022-08-26T03:04:14.218Z,1013.89
2022-08-26T03:05:15.590Z,1013.84
2022-08-26T03:06:15.966Z,1013.84
2022-08-26T03:07:16.316Z,1013.85
2022-08-26T03:08:16.693Z,1013.86
2022-08-26T03:09:18.926Z,1013.81
2022-08-26T03:10:17.405Z,1013.83
2022-08-26T03:11:17.772Z,1013.86
2022-08-26T03:12:18.130Z,1013.82
2022-08-26T03:13:18.512Z,1013.84
2022-08-26T03:14:18.870Z,1013.82
2022-08-26T03:15:19.224Z,1013.83
2022-08-26T03:16:19.661Z,1013.83
2022-08-26T03:17:19.944Z,1013.88
2022-08-26T03:18:20.526Z,1013.85
2022-08-26T03:19:20.658Z,1013.84
2022-08-26T03:20:21.019Z,1013.88
2022-08-26T03:21:21.371Z,1013.88
2022-08-26T03:22:21.732Z,1013.83
2022-08-26T03:23:22.131Z,1013.86
2022-08-26T03:24:22.449Z,1013.83
2022-08-26T03:25:22.815Z,1013.77
2022-08-26T03:26:23.171Z,1013.81
2022-08-26T03:27:23.542Z,1013.80
2022-08-26T03:28:23.946Z,1013.77
2022-08-26T03:29:24.231Z,1013.77
2022-08-26T03:30:24.650Z,1013.77
2022-08-26T03:31:24.980Z,1013.73
2022-08-26T03:32:26.965Z,1013.74
2022-08-26T03:33:25.704Z,1013.74
2022-08-26T03:34:26.064Z,1013.74
2022-08-26T03:35:26.437Z,1013.71
2022-08-26T03:36:26.859Z,1013.74
2022-08-26T03:37:27.186Z,1013.71
2022-08-26T03:38:27.603Z,1013.69
2022-08-26T03:39:27.936Z,1013.65
2022-08-26T03:40:28.993Z,1013.67
2022-08-26T03:41:28.339Z,1013.71
2022-08-26T03:42:28.504Z,1013.67
2022-08-26T03:43:28.926Z,1013.66
2022-08-26T03:44:29.239Z,1013.66
2022-08-26T03:45:29.468Z,1013.65
2022-08-26T03:46:29.742Z,1013.69
2022-08-26T03:47:29.811Z,1013.62
2022-08-26T03:48:30.215Z,1013.60
2022-08-26T03:49:30.402Z,1013.61
2022-08-26T03:50:30.488Z,1013.62
2022-08-26T03:51:30.698Z,1013.59
2022-08-26T03:52:30.952Z,1013.63
2022-08-26T03:53:31.125Z,1013.61
2022-08-26T03:54:31.315Z,1013.60
2022-08-26T03:55:31.469Z,1013.59
2022-08-26T03:56:31.638Z,1013.59
2022-08-26T03:57:31.801Z,1013.58
2022-08-26T03:58:32.101Z,1013.58
2022-08-26T03:59:32.270Z,1013.58
2022-08-26T04:00:32.452Z,1013.59
2022-08-26T04:01:32.678Z,1013.58
2022-08-26T04:02:32.938Z,1013.59
2022-08-26T04:03:33.217Z,1013.55
2022-08-26T04:04:33.388Z,1013.55
2022-08-26T04:05:33.555Z,1013.55
2022-08-26T04:06:33.754Z,1013.55
2022-08-26T04:07:34.032Z,1013.53
2022-08-26T04:08:34.256Z,1013.55
2022-08-26T04:09:35.133Z,1013.58
2022-08-26T04:10:34.680Z,1013.54
2022-08-26T04:11:35.016Z,1013.53
2022-08-26T04:12:35.029Z,1013.50
2022-08-26T04:13:35.237Z,1013.54
2022-08-26T04:14:35.507Z,1013.52
2022-08-26T04:15:35.812Z,1013.53
2022-08-26T04:16:36.066Z,1013.54
2022-08-26T04:17:36.261Z,1013.50
2022-08-26T04:18:37.235Z,1013.52
2022-08-26T04:19:36.623Z,1013.47
2022-08-26T04:20:36.813Z,1013.52
2022-08-26T04:21:36.997Z,1013.53
2022-08-26T04:22:37.211Z,1013.45
2022-08-26T04:23:47.764Z,1013.51
2022-08-26T04:24:37.545Z,1013.45
2022-08-26T04:25:37.698Z,1013.49
2022-08-26T04:26:39.564Z,1013.52
2022-08-26T04:27:38.121Z,1013.50
2022-08-26T04:28:38.306Z,1013.47
2022-08-26T04:29:38.425Z,1013.51
2022-08-26T04:30:38.617Z,1013.48
2022-08-26T04:31:38.828Z,1013.51
2022-08-26T04:32:38.985Z,1013.49
2022-08-26T04:33:41.707Z,1013.44
2022-08-26T04:34:39.325Z,1013.48
2022-08-26T04:35:40.620Z,1013.46
2022-08-26T04:36:39.682Z,1013.47
2022-08-26T04:37:39.858Z,1013.47
2022-08-26T04:38:40.107Z,1013.50
2022-08-26T04:39:40.206Z,1013.51
2022-08-26T04:40:40.396Z,1013.46
2022-08-26T04:41:40.578Z,1013.49
2022-08-26T04:42:40.746Z,1013.46
2022-08-26T04:43:40.943Z,1013.48
2022-08-26T04:44:41.120Z,1013.50
2022-08-26T04:45:41.286Z,1013.47
2022-08-26T04:46:43.844Z,1013.50
2022-08-26T04:47:41.671Z,1013.48
2022-08-26T04:48:41.849Z,1013.51
2022-08-26T04:49:42.015Z,1013.51
2022-08-26T04:50:42.354Z,1013.53
2022-08-26T04:51:44.010Z,1013.49
2022-08-26T04:52:42.670Z,1013.47
2022-08-26T04:53:42.838Z,1013.51
2022-08-26T04:54:43.027Z,1013.50
2022-08-26T04:55:45.105Z,1013.48
2022-08-26T04:56:43.412Z,1013.47
2022-08-26T04:57:43.587Z,1013.51
2022-08-26T04:58:43.921Z,1013.44
2022-08-26T04:59:44.068Z,1013.46
2022-08-26T05:00:44.341Z,1013.45
2022-08-26T05:01:44.511Z,1013.51
2022-08-26T05:02:44.666Z,1013.51
2022-08-26T05:03:44.889Z,1013.46
2022-08-26T05:04:45.025Z,1013.48
2022-08-26T05:05:45.222Z,1013.50
2022-08-26T05:06:45.418Z,1013.42
2022-08-26T05:07:45.612Z,1013.44
2022-08-26T05:08:45.865Z,1013.49
2022-08-26T05:09:46.021Z,1013.46
2022-08-26T05:10:46.225Z,1013.51
2022-08-26T05:11:48.431Z,1013.55
2022-08-26T05:12:46.613Z,1013.51
2022-08-26T05:13:46.829Z,1013.54
2022-08-26T05:14:47.001Z,1013.54
2022-08-26T05:15:47.253Z,1013.51
2022-08-26T05:16:47.732Z,1013.54
2022-08-26T05:17:47.580Z,1013.52
2022-08-26T05:18:47.786Z,1013.48
2022-08-26T05:19:47.944Z,1013.55
2022-08-26T05:20:48.176Z,1013.50
2022-08-26T05:21:48.367Z,1013.44
2022-08-26T05:22:48.545Z,1013.48
2022-08-26T05:23:48.757Z,1013.53
2022-08-26T05:24:48.911Z,1013.58
2022-08-26T05:25:49.116Z,1013.54
2022-08-26T05:26:49.311Z,1013.54
2022-08-26T05:27:49.508Z,1013.57
2022-08-26T05:28:49.705Z,1013.56
2022-08-26T05:29:54.519Z,1013.54
2022-08-26T05:30:50.127Z,1013.55
2022-08-26T05:31:50.238Z,1013.54
2022-08-26T05:32:53.640Z,1013.53
2022-08-26T05:33:50.658Z,1013.55
2022-08-26T05:34:50.829Z,1013.56
2022-08-26T05:35:51.003Z,1013.58
2022-08-26T05:36:51.223Z,1013.58
2022-08-26T05:37:51.371Z,1013.62
2022-08-26T05:38:51.626Z,1013.63
2022-08-26T05:39:51.757Z,1013.64
2022-08-26T05:40:52.679Z,1013.64
2022-08-26T05:41:52.152Z,1013.71
2022-08-26T05:42:52.356Z,1013.70
2022-08-26T05:43:52.562Z,1013.69
2022-08-26T05:44:55.404Z,1013.69
2022-08-26T05:45:52.913Z,1013.73
2022-08-26T05:46:53.201Z,1013.71
2022-08-26T05:47:53.270Z,1013.71
2022-08-26T05:48:53.495Z,1013.69
2022-08-26T05:49:53.658Z,1013.70
2022-08-26T05:50:53.809Z,1013.75
2022-08-26T05:51:54.011Z,1013.76
2022-08-26T05:52:54.215Z,1013.79
2022-08-26T05:53:55.067Z,1013.80
2022-08-26T05:54:54.594Z,1013.79
2022-08-26T05:55:54.803Z,1013.83
2022-08-26T05:56:54.992Z,1013.87
2022-08-26T05:57:55.189Z,1013.81
2022-08-26T05:58:55.392Z,1013.86
2022-08-26T05:59:55.563Z,1013.80
2022-08-26T06:00:55.780Z,1013.79
2022-08-26T06:01:55.946Z,1013.77
2022-08-26T06:02:56.225Z,1013.77
2022-08-26T06:03:56.402Z,1013.74
2022-08-26T06:04:56.517Z,1013.77
2022-08-26T06:05:56.704Z,1013.79
2022-08-26T06:06:56.857Z,1013.78
2022-08-26T06:07:57.060Z,1013.78
2022-08-26T06:08:57.291Z,1013.79
2022-08-26T06:10:15.369Z,1013.78
2022-08-26T06:10:57.657Z,1013.78
2022-08-26T06:11:57.849Z,1013.76
2022-08-26T06:12:58.063Z,1013.80
2022-08-26T06:14:03.139Z,1013.80
2022-08-26T06:14:58.446Z,1013.78
2022-08-26T06:15:58.655Z,1013.75
2022-08-26T06:16:58.759Z,1013.76
2022-08-26T06:17:58.968Z,1013.73
2022-08-26T06:18:59.182Z,1013.72
2022-08-26T06:19:59.364Z,1013.72
2022-08-26T06:20:59.561Z,1013.72
2022-08-26T06:21:59.769Z,1013.73
2022-08-26T06:22:59.931Z,1013.73
2022-08-26T06:24:00.145Z,1013.67
2022-08-26T06:25:00.304Z,1013.73
2022-08-26T06:26:00.499Z,1013.71
2022-08-26T06:27:00.694Z,1013.70
2022-08-26T06:28:00.891Z,1013.73
2022-08-26T06:29:01.703Z,1013.67
2022-08-26T06:30:01.269Z,1013.68
2022-08-26T06:31:01.485Z,1013.71
2022-08-26T06:32:01.659Z,1013.71
2022-08-26T06:33:01.851Z,1013.75
2022-08-26T06:34:02.043Z,1013.75
2022-08-26T06:35:02.197Z,1013.76
2022-08-26T06:36:02.425Z,1013.76
2022-08-26T06:37:02.817Z,1013.74
2022-08-26T06:38:02.750Z,1013.76
2022-08-26T06:39:03.006Z,1013.75
2022-08-26T06:40:03.161Z,1013.78
2022-08-26T06:41:03.317Z,1013.76
2022-08-26T06:42:06.229Z,1013.77
2022-08-26T06:43:03.709Z,1013.73
2022-08-26T06:44:03.949Z,1013.77
2022-08-26T06:45:04.138Z,1013.78
2022-08-26T06:46:04.970Z,1013.79
2022-08-26T06:47:04.501Z,1013.82
2022-08-26T06:48:04.685Z,1013.81
2022-08-26T06:49:04.869Z,1013.83
2022-08-26T06:50:05.071Z,1013.87
2022-08-26T06:51:05.260Z,1013.89
2022-08-26T06:52:05.463Z,1013.89
2022-08-26T06:53:05.623Z,1013.89
2022-08-26T06:54:05.826Z,1013.89
2022-08-26T06:55:06.016Z,1013.93
2022-08-26T06:56:06.186Z,1013.92
2022-08-26T06:57:06.391Z,1013.96
2022-08-26T06:58:06.569Z,1013.96
2022-08-26T06:59:07.176Z,1013.95
2022-08-26T07:00:06.961Z,1013.97
2022-08-26T07:01:11.612Z,1013.98
2022-08-26T07:02:07.470Z,1013.95
2022-08-26T07:03:07.826Z,1013.98
2022-08-26T07:04:10.454Z,1013.98
2022-08-26T07:05:07.958Z,1013.99
2022-08-26T07:06:08.204Z,1014.01
2022-08-26T07:07:08.312Z,1014.01
2022-08-26T07:08:08.513Z,1014.06
2022-08-26T07:09:09.878Z,1014.12
2022-08-26T07:10:08.887Z,1014.06
2022-08-26T07:11:09.077Z,1014.04
2022-08-26T07:12:09.270Z,1014.08
2022-08-26T07:13:09.663Z,1014.06
2022-08-26T07:14:09.733Z,1014.00
2022-08-26T07:15:09.866Z,1013.97
2022-08-26T07:16:10.112Z,1013.96
2022-08-26T07:17:13.859Z,1013.93
2022-08-26T07:18:10.474Z,1013.94
2022-08-26T07:19:11.622Z,1013.95
2022-08-26T07:20:10.842Z,1013.96
2022-08-26T07:21:11.090Z,1013.92
2022-08-26T07:22:11.236Z,1013.96
2022-08-26T07:23:11.873Z,1014.01
2022-08-26T07:24:11.622Z,1014.01
2022-08-26T07:25:11.765Z,1014.03
2022-08-26T07:26:11.921Z,1014.05
2022-08-26T07:27:12.120Z,1014.01
2022-08-26T07:28:12.309Z,1013.99
2022-08-26T07:29:12.696Z,1013.97
2022-08-26T07:30:14.868Z,1014.03
2022-08-26T07:31:12.933Z,1014.00
2022-08-26T07:32:13.107Z,1014.03
2022-08-26T07:33:13.295Z,1013.99
2022-08-26T07:34:13.510Z,1014.00
2022-08-26T07:35:13.675Z,1013.98
2022-08-26T07:36:13.879Z,1013.96
2022-08-26T07:37:14.110Z,1013.95
2022-08-26T07:38:14.299Z,1014.00
2022-08-26T07:39:14.514Z,1013.96
2022-08-26T07:40:14.729Z,1013.97
2022-08-26T07:41:14.825Z,1013.95
2022-08-26T07:42:15.030Z,1013.98
2022-08-26T07:43:15.238Z,1014.01
2022-08-26T07:44:15.444Z,1013.97
2022-08-26T07:45:15.592Z,1014.04
2022-08-26T07:46:16.563Z,1014.03
2022-08-26T07:47:24.769Z,1014.04
2022-08-26T07:48:16.211Z,1014.00
2022-08-26T07:49:16.453Z,1013.97
2022-08-26T07:50:16.564Z,1013.99
2022-08-26T07:51:16.717Z,1013.97
2022-08-26T07:52:16.919Z,1014.00
2022-08-26T07:53:18.121Z,1013.96
2022-08-26T07:54:17.297Z,1013.94
2022-08-26T07:55:17.461Z,1013.91
2022-08-26T07:56:17.671Z,1013.93
2022-08-26T07:57:19.159Z,1013.94
2022-08-26T07:58:18.035Z,1013.93
2022-08-26T07:59:18.257Z,1013.98
2022-08-26T08:00:18.418Z,1013.98
2022-08-26T08:01:18.667Z,1014.01
2022-08-26T08:02:18.832Z,1013.96
2022-08-26T08:03:19.008Z,1013.94
2022-08-26T08:04:22.997Z,1014.02
2022-08-26T08:05:19.490Z,1013.97
2022-08-26T08:06:19.592Z,1013.98
2022-08-26T08:07:19.845Z,1013.98
2022-08-26T08:08:27.972Z,1013.99
2022-08-26T08:09:20.170Z,1014.00
2022-08-26T08:10:20.821Z,1013.98
2022-08-26T08:11:20.509Z,1013.98
2022-08-26T08:12:20.706Z,1014.02
2022-08-26T08:13:20.898Z,1013.99
2022-08-26T08:14:22.235Z,1013.94
2022-08-26T08:15:21.302Z,1013.95
2022-08-26T08:16:21.517Z,1013.99
2022-08-26T08:17:21.643Z,1013.93
2022-08-26T08:18:21.848Z,1013.97
2022-08-26T08:19:22.061Z,1013.99
2022-08-26T08:20:22.220Z,1013.96
2022-08-26T08:21:24.161Z,1013.96
2022-08-26T08:22:22.613Z,1013.93
2022-08-26T08:23:22.823Z,1013.96
2022-08-26T08:24:23.026Z,1013.96
2022-08-26T08:25:23.194Z,1013.92
2022-08-26T08:26:23.394Z,1013.95
2022-08-26T08:27:24.321Z,1013.98
2022-08-26T08:28:23.786Z,1013.95
2022-08-26T08:29:23.981Z,1013.91
2022-08-26T08:30:24.131Z,1013.95
2022-08-26T08:31:52.495Z,1013.98
2022-08-26T08:32:24.519Z,1013.99
2022-08-26T08:33:24.711Z,1014.02
2022-08-26T08:34:24.926Z,1013.99
2022-08-26T08:35:25.097Z,1013.96
2022-08-26T08:36:25.294Z,1013.99
2022-08-26T08:37:25.505Z,1013.94
2022-08-26T08:38:25.669Z,1013.92
2022-08-26T08:39:25.928Z,1013.96
2022-08-26T08:40:26.173Z,1013.97
2022-08-26T08:41:26.308Z,1013.95
2022-08-26T08:42:26.456Z,1013.95
2022-08-26T08:43:26.606Z,1013.95
2022-08-26T08:45:26.958Z,1013.99
2022-08-26T08:46:27.196Z,1013.99
2022-08-26T08:47:27.353Z,1013.98
2022-08-26T08:48:27.782Z,1013.97
2022-08-26T08:49:27.757Z,1014.04
2022-08-26T08:50:27.893Z,1014.04
2022-08-26T08:51:28.092Z,1014.07
2022-08-26T08:52:28.332Z,1014.06
2022-08-26T08:53:28.494Z,1014.06
2022-08-26T08:54:28.692Z,1014.08
2022-08-26T08:55:28.848Z,1014.05
2022-08-26T08:56:29.045Z,1014.08
2022-08-26T08:57:29.240Z,1014.08
2022-08-26T08:58:29.442Z,1014.06
2022-08-26T08:59:29.635Z,1014.07
2022-08-26T09:00:30.627Z,1014.11
2022-08-26T09:01:30.074Z,1014.16
2022-08-26T09:02:30.386Z,1014.12
2022-08-26T09:03:30.471Z,1014.17
2022-08-26T09:04:36.707Z,1014.06
2022-08-26T09:05:30.858Z,1014.04
2022-08-26T09:06:31.035Z,1014.14
2022-08-26T09:07:33.244Z,1014.08
2022-08-26T09:08:31.393Z,1014.07
2022-08-26T09:09:31.547Z,1014.07
2022-08-26T09:10:31.738Z,1014.02
2022-08-26T09:11:31.880Z,1014.03
2022-08-26T09:12:32.061Z,1014.02
2022-08-26T09:13:32.240Z,1014.04
2022-08-26T09:14:32.417Z,1014.00
2022-08-26T09:15:32.668Z,1014.09
2022-08-26T09:16:32.791Z,1014.14
2022-08-26T09:17:32.990Z,1014.11
2022-08-26T09:18:33.146Z,1014.28
2022-08-26T09:19:33.324Z,1014.35
2022-08-26T09:20:33.556Z,1014.45
2022-08-26T09:21:33.658Z,1014.57
2022-08-26T09:22:33.854Z,1014.61
2022-08-26T09:23:34.099Z,1014.67
2022-08-26T09:24:37.301Z,1014.65
2022-08-26T09:25:34.381Z,1014.54
2022-08-26T09:26:34.564Z,1014.50
2022-08-26T09:27:34.717Z,1014.52
2022-08-26T09:28:34.939Z,1014.57
2022-08-26T09:29:35.095Z,1014.59
2022-08-26T09:30:35.385Z,1014.71
2022-08-26T09:31:35.565Z,1014.75
2022-08-26T09:32:35.680Z,1014.70
2022-08-26T09:33:35.847Z,1014.80
2022-08-26T09:34:36.058Z,1014.86
2022-08-26T09:35:36.297Z,1014.97
2022-08-26T09:36:39.452Z,1014.88
2022-08-26T09:37:36.709Z,1014.93
2022-08-26T09:38:36.835Z,1014.91
2022-08-26T09:39:37.860Z,1014.92
2022-08-26T09:40:37.251Z,1014.87
2022-08-26T09:41:37.372Z,1014.84
2022-08-26T09:42:37.937Z,1014.81
2022-08-26T09:43:37.760Z,1014.79
2022-08-26T09:44:37.957Z,1014.83
2022-08-26T09:45:38.164Z,1014.84
2022-08-26T09:47:38.469Z,1014.55
2022-08-26T09:48:41.165Z,1014.71
2022-08-26T09:49:38.880Z,1014.66
2022-08-26T09:50:39.063Z,1014.60
2022-08-26T09:51:39.280Z,1014.50
2022-08-26T09:52:40.468Z,1014.50
2022-08-26T09:53:39.614Z,1014.47
2022-08-26T09:54:39.784Z,1014.40
2022-08-26T09:55:39.967Z,1014.38
2022-08-26T09:56:40.139Z,1014.38
2022-08-26T09:57:40.294Z,1014.34
2022-08-26T09:58:40.498Z,1014.32
2022-08-26T09:59:40.659Z,1014.30
2022-08-26T10:00:40.884Z,1014.21
2022-08-26T10:01:41.135Z,1014.15
2022-08-26T10:02:41.220Z,1014.12
2022-08-26T10:03:41.417Z,1014.08
2022-08-26T10:04:41.687Z,1013.97
2022-08-26T10:05:41.830Z,1013.97
2022-08-26T10:06:41.985Z,1013.87
2022-08-26T10:07:42.163Z,1013.83
2022-08-26T10:08:42.375Z,1013.75
2022-08-26T10:09:42.599Z,1013.75
2022-08-26T10:10:42.760Z,1013.70
2022-08-26T10:11:42.908Z,1013.58
2022-08-26T10:12:43.104Z,1013.62
2022-08-26T10:13:43.333Z,1013.58
2022-08-26T10:15:50.036Z,1013.58
2022-08-26T10:16:43.913Z,1013.54
2022-08-26T10:17:44.037Z,1013.50
2022-08-26T10:18:44.202Z,1013.47
2022-08-26T10:19:57.009Z,1013.50
2022-08-26T10:20:44.583Z,1013.50
2022-08-26T10:21:44.769Z,1013.50
2022-08-26T10:22:44.925Z,1013.47
2022-08-26T10:23:45.305Z,1013.45
2022-08-26T10:24:46.372Z,1013.49
2022-08-26T10:25:45.536Z,1013.45
2022-08-26T10:26:45.723Z,1013.44
2022-08-26T10:27:51.206Z,1013.40
2022-08-26T10:28:46.104Z,1013.40
2022-08-26T10:29:46.316Z,1013.41
2022-08-26T10:30:46.528Z,1013.44
2022-08-26T10:31:46.746Z,1013.41
2022-08-26T10:32:46.926Z,1013.42
2022-08-26T10:33:47.127Z,1013.43
2022-08-26T10:34:47.316Z,1013.45
2022-08-26T10:35:47.558Z,1013.39
2022-08-26T10:37:10.573Z,1013.46
2022-08-26T10:37:47.924Z,1013.44
2022-08-26T10:38:48.092Z,1013.43
2022-08-26T10:39:49.177Z,1013.52
2022-08-26T10:40:49.123Z,1013.47
2022-08-26T10:41:48.676Z,1013.44
2022-08-26T10:42:48.890Z,1013.47
2022-08-26T10:43:49.096Z,1013.47
2022-08-26T10:44:49.252Z,1013.44
2022-08-26T10:45:49.569Z,1013.47
2022-08-26T10:46:49.685Z,1013.49
2022-08-26T10:47:49.869Z,1013.57
2022-08-26T10:48:50.047Z,1013.46
2022-08-26T10:49:50.272Z,1013.48
2022-08-26T10:50:50.444Z,1013.50
2022-08-26T10:51:50.649Z,1013.51
2022-08-26T10:52:50.882Z,1013.56
2022-08-26T10:53:51.627Z,1013.54
2022-08-26T10:54:51.288Z,1013.58
2022-08-26T10:55:51.546Z,1013.60
2022-08-26T10:56:51.761Z,1013.57
2022-08-26T10:57:51.984Z,1013.60
2022-08-26T10:58:52.172Z,1013.58
2022-08-26T10:59:52.494Z,1013.61
2022-08-26T11:00:52.608Z,1013.55
2022-08-26T11:01:52.804Z,1013.54
2022-08-26T11:02:52.892Z,1013.54
2022-08-26T11:03:53.155Z,1013.57
2022-08-26T11:04:53.283Z,1013.57
2022-08-26T11:05:53.500Z,1013.51
2022-08-26T11:06:53.691Z,1013.51
2022-08-26T11:07:53.903Z,1013.46
2022-08-26T11:08:54.119Z,1013.45
2022-08-26T11:09:54.297Z,1013.44
2022-08-26T11:10:54.510Z,1013.46
2022-08-26T11:11:54.685Z,1013.48
2022-08-26T11:12:54.860Z,1013.45
2022-08-26T11:13:55.051Z,1013.46
2022-08-26T11:14:58.749Z,1013.41
2022-08-26T11:15:55.521Z,1013.40
2022-08-26T11:16:55.688Z,1013.35
2022-08-26T11:17:55.863Z,1013.36
2022-08-26T11:18:56.042Z,1013.40
2022-08-26T11:20:01.984Z,1013.33
2022-08-26T11:20:56.481Z,1013.23
2022-08-26T11:21:56.678Z,1013.21
2022-08-26T11:22:59.576Z,1013.24
2022-08-26T11:23:57.061Z,1013.22
2022-08-26T11:24:57.254Z,1013.23
2022-08-26T11:25:57.577Z,1013.21
2022-08-26T11:26:57.638Z,1013.30
2022-08-26T11:27:57.834Z,1013.24
2022-08-26T11:28:58.022Z,1013.26
2022-08-26T11:29:58.209Z,1013.24
2022-08-26T11:30:58.538Z,1013.19
2022-08-26T11:31:58.701Z,1013.19
2022-08-26T11:32:58.815Z,1013.12
2022-08-26T11:33:59.479Z,1013.13
2022-08-26T11:34:59.190Z,1013.08
2022-08-26T11:35:59.407Z,1013.01
2022-08-26T11:36:59.594Z,1013.03
2022-08-26T11:37:59.800Z,1012.93
2022-08-26T11:38:59.975Z,1012.86
2022-08-26T11:40:00.260Z,1012.86
2022-08-26T11:41:00.393Z,1012.77
2022-08-26T11:42:00.597Z,1012.76
2022-08-26T11:43:00.804Z,1012.75
2022-08-26T11:44:01.262Z,1012.76
2022-08-26T11:45:04.717Z,1012.78
2022-08-26T11:46:01.471Z,1012.79
2022-08-26T11:47:01.591Z,1012.76
2022-08-26T11:48:01.847Z,1012.73
2022-08-26T11:49:01.944Z,1012.74
2022-08-26T11:50:02.158Z,1012.71
2022-08-26T11:51:02.460Z,1012.66
2022-08-26T11:52:02.561Z,1012.69
2022-08-26T11:53:03.018Z,1012.66
2022-08-26T11:54:02.990Z,1012.59
2022-08-26T11:55:03.173Z,1012.62
2022-08-26T11:56:03.389Z,1012.63
2022-08-26T11:57:07.759Z,1012.71
2022-08-26T11:58:04.816Z,1012.63
2022-08-26T11:59:03.962Z,1012.62
2022-08-26T12:00:04.186Z,1012.65
2022-08-26T12:01:04.379Z,1012.65
2022-08-26T12:02:04.610Z,1012.60
2022-08-26T12:03:04.874Z,1012.56
2022-08-26T12:04:05.150Z,1012.55
2022-08-26T12:05:05.213Z,1012.52
2022-08-26T12:06:05.388Z,1012.52
2022-08-26T12:07:05.596Z,1012.53
2022-08-26T12:08:06.272Z,1012.52
2022-08-26T12:09:05.989Z,1012.51
2022-08-26T12:10:06.172Z,1012.45
2022-08-26T12:11:06.381Z,1012.47
2022-08-26T12:12:06.557Z,1012.50